Time;durP1;ratioP1;P1;durP2;ratioP2;P2;SDS_P1;SDS_P2;PMS_P1;PMS_P2;Temp;Humidity;BMP_temperature;BMP_pressure;BME280_temperature;BME280_humidity;BME280_pressure;Samples;Min_cycle;Max_cycle;Signal;HPM_P1;HPM_P2
2022/09/01 00:01:41;;;;;;;1.90;1.50;;;18.00;99.90;;;;;;5050819;28;20465;-44
2022/09/01 00:04:10;;;;;;;3.10;1.37;;;18.10;99.90;;;;;;5051029;28;20427;-46
2022/09/01 00:06:37;;;;;;;2.10;1.40;;;18.10;99.90;;;;;;5050237;28;20432;-48
2022/09/01 00:09:05;;;;;;;2.07;1.43;;;18.10;99.90;;;;;;5050787;28;20502;-43
2022/09/01 00:11:31;;;;;;;2.00;1.73;;;18.10;99.90;;;;;;5050901;28;20416;-48
2022/09/01 00:14:00;;;;;;;2.53;1.60;;;18.10;99.90;;;;;;5050833;28;20413;-45
2022/09/01 00:16:26;;;;;;;4.50;1.33;;;18.10;99.90;;;;;;5050510;28;20843;-44
2022/09/01 00:18:53;;;;;;;2.57;1.83;;;18.10;99.90;;;;;;5051278;28;20419;-48
2022/09/01 00:21:30;;;;;;;2.20;1.63;;;18.20;99.90;;;;;;5061222;28;20408;-44
2022/09/01 00:23:56;;;;;;;2.07;1.87;;;18.20;99.90;;;;;;5050857;28;20841;-45
2022/09/01 00:26:22;;;;;;;1.70;1.40;;;18.20;99.90;;;;;;5050517;28;20420;-46
2022/09/01 00:28:49;;;;;;;3.50;1.60;;;18.10;99.90;;;;;;5050088;28;20836;-44
2022/09/01 00:31:18;;;;;;;1.33;1.20;;;18.10;99.90;;;;;;5049115;28;20554;-45
2022/09/01 00:33:45;;;;;;;2.30;1.57;;;18.10;99.90;;;;;;5050589;28;20422;-43
2022/09/01 00:36:11;;;;;;;3.13;1.50;;;18.10;99.90;;;;;;5050593;28;20424;-46
2022/09/01 00:38:39;;;;;;;1.70;1.60;;;18.10;99.90;;;;;;5049929;28;20424;-45
2022/09/01 00:41:06;;;;;;;2.60;2.07;;;18.10;99.90;;;;;;5050437;28;20584;-45
2022/09/01 00:43:44;;;;;;;2.53;1.53;;;18.00;99.90;;;;;;5049935;28;20416;-43
2022/09/01 00:46:19;;;;;;;2.33;1.70;;;18.00;99.90;;;;;;5050120;28;20428;-43
2022/09/01 00:48:50;;;;;;;2.53;1.90;;;18.00;99.90;;;;;;5049627;28;20431;-46
2022/09/01 00:51:16;;;;;;;1.60;1.27;;;18.00;99.90;;;;;;5050113;28;20456;-43
2022/09/01 00:53:44;;;;;;;5.40;1.90;;;18.00;99.90;;;;;;5049978;28;20412;-45
2022/09/01 00:56:12;;;;;;;2.23;1.60;;;18.10;99.90;;;;;;5048413;28;20186;-47
2022/09/01 00:58:38;;;;;;;3.40;1.70;;;18.10;99.90;;;;;;5048091;28;20786;-45
2022/09/01 01:01:09;;;;;;;4.90;1.60;;;18.10;99.90;;;;;;5049917;28;20420;-43
2022/09/01 01:03:35;;;;;;;2.10;1.60;;;18.10;99.90;;;;;;5048932;28;20416;-43
2022/09/01 01:06:06;;;;;;;5.20;1.80;;;18.10;99.80;;;;;;5049801;28;20444;-46
2022/09/01 01:08:35;;;;;;;2.80;1.70;;;18.20;99.70;;;;;;5048981;28;20192;-45
2022/09/01 01:11:08;;;;;;;2.33;1.40;;;18.10;99.70;;;;;;5049773;28;20798;-46
2022/09/01 01:13:57;;;;;;;3.00;1.40;;;18.10;99.70;;;;;;5049609;28;20435;-45
2022/09/01 01:16:25;;;;;;;1.80;1.70;;;18.10;99.80;;;;;;5049677;28;20412;-47
2022/09/01 01:18:52;;;;;;;1.90;1.60;;;18.10;99.90;;;;;;5049471;28;20947;-48
2022/09/01 01:24:20;;;;;;;1.87;1.30;;;18.00;99.90;;;;;;5049474;28;20412;-50
2022/09/01 01:26:46;;;;;;;1.50;1.40;;;17.90;99.90;;;;;;5048687;28;20754;-45
2022/09/01 01:29:12;;;;;;;3.13;1.70;;;17.90;99.90;;;;;;5048915;28;20497;-44
2022/09/01 01:31:38;;;;;;;2.17;1.50;;;17.90;99.90;;;;;;5049521;28;20181;-43
2022/09/01 01:34:06;;;;;;;3.93;1.60;;;17.90;99.90;;;;;;5049419;28;20427;-44
2022/09/01 01:36:36;;;;;;;1.90;1.70;;;17.90;99.90;;;;;;5047702;28;20340;-42
2022/09/01 01:39:15;;;;;;;2.13;1.90;;;17.80;99.90;;;;;;5049174;28;20427;-45
2022/09/01 01:41:47;;;;;;;2.33;1.60;;;17.70;99.90;;;;;;5049051;28;20421;-46
2022/09/01 01:44:15;;;;;;;2.57;1.90;;;17.60;99.90;;;;;;5049528;28;20593;-44
2022/09/01 01:46:44;;;;;;;1.60;1.50;;;17.50;99.90;;;;;;5048577;28;20519;-45
2022/09/01 01:49:13;;;;;;;3.37;1.90;;;17.40;99.90;;;;;;5049253;28;20470;-43
2022/09/01 01:51:39;;;;;;;1.50;1.40;;;17.40;99.90;;;;;;5049552;28;20465;-47
2022/09/01 01:54:06;;;;;;;3.43;2.17;;;17.30;99.90;;;;;;5049430;28;20436;-45
2022/09/01 01:56:38;;;;;;;2.13;1.60;;;17.30;99.90;;;;;;5046894;28;20550;-42
2022/09/01 01:59:05;;;;;;;2.63;1.90;;;17.30;99.90;;;;;;5048844;28;20938;-49
2022/09/01 02:01:32;;;;;;;2.90;1.53;;;17.30;99.90;;;;;;5048752;28;20435;-45
2022/09/01 02:03:59;;;;;;;2.30;1.57;;;17.30;99.90;;;;;;5049081;28;20531;-46
2022/09/01 02:06:26;;;;;;;3.20;1.90;;;17.30;99.90;;;;;;5048422;28;20492;-43
2022/09/01 02:08:57;;;;;;;3.40;1.90;;;17.20;99.90;;;;;;5047895;28;20424;-45
2022/09/01 02:11:24;;;;;;;3.77;2.20;;;17.20;99.90;;;;;;5048906;28;20464;-46
2022/09/01 02:13:55;;;;;;;5.53;1.80;;;17.10;99.90;;;;;;5048361;28;20429;-46
2022/09/01 02:16:21;;;;;;;1.77;1.60;;;17.00;99.90;;;;;;5048535;28;20786;-43
2022/09/01 02:18:47;;;;;;;2.37;1.80;;;17.00;99.90;;;;;;5048405;28;20431;-46
2022/09/01 02:21:18;;;;;;;2.40;1.97;;;17.00;99.90;;;;;;5060184;28;20428;-46
2022/09/01 02:23:47;;;;;;;1.90;1.70;;;17.00;99.90;;;;;;5048832;28;20229;-46
2022/09/01 02:26:15;;;;;;;2.60;1.90;;;17.00;99.90;;;;;;5048609;28;20428;-45
2022/09/01 02:28:42;;;;;;;3.70;2.30;;;17.00;99.90;;;;;;5047940;28;20803;-43
2022/09/01 02:31:09;;;;;;;2.30;2.10;;;16.90;99.90;;;;;;5048269;28;20460;-46
2022/09/01 02:33:36;;;;;;;3.00;2.70;;;16.80;99.90;;;;;;5048338;28;20424;-45
2022/09/01 02:36:07;;;;;;;2.53;1.60;;;16.80;99.90;;;;;;5047954;28;20473;-46
2022/09/01 02:38:33;;;;;;;4.27;2.77;;;16.80;99.90;;;;;;5047708;28;20420;-42
2022/09/01 02:41:01;;;;;;;2.50;2.30;;;16.70;99.90;;;;;;5048318;28;20428;-45
2022/09/01 02:43:28;;;;;;;2.67;1.87;;;16.60;99.90;;;;;;5047020;28;20436;-45
2022/09/01 02:45:58;;;;;;;3.17;2.30;;;16.60;99.90;;;;;;5048228;28;20463;-46
2022/09/01 02:48:31;;;;;;;3.37;2.00;;;16.60;99.90;;;;;;5047152;28;20424;-43
2022/09/01 02:51:00;;;;;;;4.23;2.20;;;16.60;99.90;;;;;;5048075;28;20491;-47
2022/09/01 02:53:27;;;;;;;2.07;1.70;;;16.60;99.90;;;;;;5034971;28;20456;-45
2022/09/01 02:55:57;;;;;;;2.17;1.97;;;16.60;99.90;;;;;;5046860;28;20424;-44
2022/09/01 02:58:28;;;;;;;4.10;2.23;;;16.60;99.90;;;;;;5047248;28;20499;-48
2022/09/01 03:00:55;;;;;;;3.47;2.13;;;16.50;99.90;;;;;;5047696;28;20420;-47
2022/09/01 03:03:21;;;;;;;2.70;2.20;;;16.40;99.90;;;;;;5048013;28;20420;-47
2022/09/01 03:05:54;;;;;;;2.87;1.93;;;16.30;99.90;;;;;;5047981;28;20459;-44
2022/09/01 03:08:21;;;;;;;2.53;1.80;;;16.20;99.90;;;;;;5047346;28;20459;-45
2022/09/01 03:10:47;;;;;;;2.27;2.07;;;16.10;99.90;;;;;;5047899;28;20859;-46
2022/09/01 03:13:22;;;;;;;4.17;2.30;;;16.20;99.90;;;;;;5047846;28;20424;-45
2022/09/01 03:15:49;;;;;;;2.47;2.23;;;16.20;99.90;;;;;;5047936;28;20485;-45
2022/09/01 03:18:15;;;;;;;2.93;2.27;;;16.30;99.90;;;;;;5047228;28;20434;-45
2022/09/01 03:20:45;;;;;;;4.33;1.80;;;16.20;99.90;;;;;;5060109;28;20424;-48
2022/09/01 03:23:13;;;;;;;2.10;1.90;;;16.20;99.90;;;;;;5047611;28;20443;-47
2022/09/01 03:25:44;;;;;;;2.30;2.10;;;16.20;99.90;;;;;;5047989;28;20815;-45
2022/09/01 03:28:11;;;;;;;2.83;2.10;;;16.10;99.90;;;;;;5049366;28;20934;-45
2022/09/01 03:30:39;;;;;;;2.50;2.30;;;16.10;99.90;;;;;;5051611;28;20466;-45
2022/09/01 03:33:06;;;;;;;2.70;2.50;;;16.10;99.90;;;;;;5051623;28;20423;-46
2022/09/01 03:35:33;;;;;;;2.40;2.20;;;16.10;99.90;;;;;;5050476;28;20424;-45
2022/09/01 03:38:01;;;;;;;2.23;2.03;;;16.00;99.90;;;;;;5051308;28;20472;-44
2022/09/01 03:40:31;;;;;;;2.87;2.07;;;16.00;99.90;;;;;;5051333;28;20476;-45
2022/09/01 03:43:05;;;;;;;3.67;2.60;;;16.10;99.90;;;;;;5051634;28;20481;-42
2022/09/01 03:45:37;;;;;;;2.80;2.33;;;16.00;99.90;;;;;;5051701;28;20424;-44
2022/09/01 03:48:07;;;;;;;3.33;2.27;;;16.00;99.90;;;;;;5050931;28;20714;-47
2022/09/01 03:50:39;;;;;;;4.57;2.33;;;15.90;99.90;;;;;;5050824;28;20448;-44
2022/09/01 03:53:06;;;;;;;2.50;2.10;;;15.80;99.90;;;;;;5051005;28;20420;-43
2022/09/01 03:55:33;;;;;;;2.30;2.10;;;15.70;99.90;;;;;;5051100;28;20428;-47
2022/09/01 03:58:05;;;;;;;3.07;2.30;;;15.70;99.90;;;;;;5049688;28;20478;-43
2022/09/01 04:00:42;;;;;;;2.40;2.20;;;15.60;99.90;;;;;;5050935;28;20420;-48
2022/09/01 04:03:11;;;;;;;3.47;2.17;;;15.60;99.90;;;;;;5051293;28;20570;-48
2022/09/01 04:05:39;;;;;;;3.47;2.33;;;15.50;99.90;;;;;;5050564;28;20479;-45
2022/09/01 04:08:09;;;;;;;3.63;2.10;;;15.50;99.90;;;;;;5050451;28;20432;-47
2022/09/01 04:10:40;;;;;;;2.97;2.53;;;15.40;99.90;;;;;;5050739;28;20456;-45
2022/09/01 04:13:10;;;;;;;2.83;2.13;;;15.50;99.90;;;;;;5051145;28;20927;-46
2022/09/01 04:15:36;;;;;;;3.33;2.30;;;15.50;99.90;;;;;;5051119;28;20477;-44
2022/09/01 04:18:09;;;;;;;3.30;2.50;;;15.50;99.90;;;;;;5050016;28;20935;-49
2022/09/01 04:20:48;;;;;;;2.23;2.03;;;15.50;99.90;;;;;;5062338;28;20511;-44
2022/09/01 04:23:26;;;;;;;3.20;2.30;;;15.50;99.90;;;;;;5050995;28;20523;-44
2022/09/01 04:26:07;;;;;;;2.60;2.40;;;15.50;99.90;;;;;;5050672;28;20439;-46
2022/09/01 04:28:35;;;;;;;2.93;2.43;;;15.60;99.90;;;;;;5049608;28;20588;-43
2022/09/01 04:31:08;;;;;;;4.87;2.43;;;15.50;99.90;;;;;;5050506;28;20999;-47
2022/09/01 04:33:37;;;;;;;2.90;2.57;;;15.50;99.90;;;;;;5050735;28;20428;-45
2022/09/01 04:36:18;;;;;;;4.37;3.07;;;15.50;99.90;;;;;;5050595;28;20428;-43
2022/09/01 04:39:07;;;;;;;2.70;2.50;;;15.40;99.90;;;;;;5049475;28;20580;-45
2022/09/01 04:41:36;;;;;;;4.00;2.70;;;15.40;99.90;;;;;;5047209;28;20436;-48
2022/09/01 04:44:03;;;;;;;4.03;3.07;;;15.50;99.90;;;;;;5049720;28;20431;-48
2022/09/01 04:46:34;;;;;;;3.20;2.60;;;15.50;99.90;;;;;;5043552;28;20448;-47
2022/09/01 04:49:05;;;;;;;4.37;2.73;;;15.40;99.90;;;;;;5048671;28;20424;-46
2022/09/01 04:51:32;;;;;;;3.93;2.67;;;15.40;99.90;;;;;;5049519;28;20509;-44
2022/09/01 04:53:57;;;;;;;5.87;2.80;;;15.40;99.90;;;;;;5049991;28;20511;-46
2022/09/01 04:56:25;;;;;;;3.50;2.70;;;15.50;99.90;;;;;;5047715;28;20531;-48
2022/09/01 04:58:54;;;;;;;4.90;3.17;;;15.50;99.90;;;;;;5049319;28;20428;-42
2022/09/01 05:01:24;;;;;;;3.17;2.87;;;15.50;99.90;;;;;;5042168;28;20456;-45
2022/09/01 05:04:00;;;;;;;5.83;3.30;;;15.50;99.90;;;;;;5042138;28;20483;-45
2022/09/01 05:06:26;;;;;;;2.37;2.10;;;15.50;99.90;;;;;;5047862;28;20439;-42
2022/09/01 05:08:55;;;;;;;5.10;2.60;;;15.50;99.90;;;;;;5049855;28;21029;-42
2022/09/01 05:11:22;;;;;;;3.40;2.37;;;15.50;99.90;;;;;;5068440;28;20451;-44
2022/09/01 05:13:49;;;;;;;2.90;2.57;;;15.50;99.90;;;;;;5069808;28;20419;-44
2022/09/01 05:16:20;;;;;;;3.37;2.67;;;15.50;99.90;;;;;;5068546;28;20420;-43
2022/09/01 05:18:48;;;;;;;2.63;2.43;;;15.40;99.90;;;;;;5049246;28;20405;-42
2022/09/01 05:21:17;;;;;;;2.50;2.30;;;15.50;99.90;;;;;;5060679;28;20459;-42
2022/09/01 05:23:44;;;;;;;2.93;2.57;;;15.40;99.90;;;;;;5049756;28;20424;-44
2022/09/01 05:26:16;;;;;;;8.67;2.73;;;15.40;99.90;;;;;;5049804;28;20846;-47
2022/09/01 05:28:47;;;;;;;3.03;2.70;;;15.50;99.90;;;;;;5048603;28;20566;-47
2022/09/01 05:31:13;;;;;;;4.17;2.40;;;15.40;99.90;;;;;;5049701;28;20479;-43
2022/09/01 05:33:44;;;;;;;3.63;3.20;;;15.50;99.90;;;;;;5049348;28;20428;-44
2022/09/01 05:36:16;;;;;;;3.00;2.00;;;15.60;99.90;;;;;;5049368;28;20452;-46
2022/09/01 05:38:44;;;;;;;3.97;2.87;;;15.60;99.90;;;;;;5048266;28;20420;-46
2022/09/01 05:41:13;;;;;;;3.80;2.50;;;15.70;99.90;;;;;;5046380;28;20466;-43
2022/09/01 05:43:45;;;;;;;3.57;2.63;;;15.80;99.90;;;;;;5035727;28;20429;-45
2022/09/01 05:46:16;;;;;;;4.50;2.90;;;15.80;99.90;;;;;;5049239;28;20460;-43
2022/09/01 05:48:43;;;;;;;2.83;2.53;;;15.90;99.90;;;;;;5047939;28;20420;-46
2022/09/01 05:51:13;;;;;;;2.50;2.30;;;16.00;99.90;;;;;;5049170;28;20517;-47
2022/09/01 05:53:39;;;;;;;4.10;2.60;;;16.10;99.90;;;;;;5055957;28;20419;-47
2022/09/01 05:56:08;;;;;;;4.70;2.93;;;16.20;99.90;;;;;;5066571;28;20822;-45
2022/09/01 05:58:35;;;;;;;4.00;2.63;;;16.30;99.90;;;;;;5068478;28;20239;-44
2022/09/01 06:01:01;;;;;;;4.53;2.30;;;16.40;99.90;;;;;;5068919;28;20419;-44
2022/09/01 06:03:27;;;;;;;3.10;2.90;;;16.40;99.90;;;;;;5068775;28;20419;-44
2022/09/01 06:06:03;;;;;;;2.63;2.43;;;16.60;99.90;;;;;;5068824;28;20451;-46
2022/09/01 06:08:29;;;;;;;2.70;1.93;;;16.80;99.90;;;;;;5067697;28;20415;-44
2022/09/01 06:10:54;;;;;;;4.17;2.50;;;16.90;99.90;;;;;;5062331;28;20855;-48
2022/09/01 06:13:20;;;;;;;3.30;2.63;;;17.10;99.90;;;;;;5046693;28;20273;-42
2022/09/01 06:15:55;;;;;;;3.33;2.17;;;17.20;99.90;;;;;;5044604;28;20188;-45
2022/09/01 06:18:20;;;;;;;3.17;2.23;;;17.40;99.90;;;;;;5047963;28;20424;-47
2022/09/01 06:20:48;;;;;;;2.87;2.30;;;17.60;99.90;;;;;;5060498;28;20435;-42
2022/09/01 06:23:16;;;;;;;3.80;2.40;;;17.70;99.90;;;;;;5068567;28;20655;-42
2022/09/01 06:25:45;;;;;;;2.90;2.30;;;17.90;99.90;;;;;;5067153;28;20623;-43
2022/09/01 06:28:21;;;;;;;4.57;2.00;;;18.00;99.90;;;;;;5049635;28;20517;-42
2022/09/01 06:30:47;;;;;;;4.73;2.63;;;18.10;99.90;;;;;;5048568;28;20451;-50
2022/09/01 06:33:14;;;;;;;2.80;2.50;;;18.20;99.90;;;;;;5030025;28;20455;-44
2022/09/01 06:35:43;;;;;;;3.93;2.97;;;18.30;99.90;;;;;;5044208;28;20435;-45
2022/09/01 06:38:11;;;;;;;4.60;3.10;;;18.40;99.90;;;;;;5048296;28;20519;-44
2022/09/01 06:40:39;;;;;;;3.50;2.33;;;18.50;99.90;;;;;;5047676;28;20416;-47
2022/09/01 06:43:08;;;;;;;5.33;2.60;;;18.60;99.90;;;;;;5048750;28;20428;-48
2022/09/01 06:45:41;;;;;;;7.10;2.77;;;18.60;99.90;;;;;;5048163;28;20930;-41
2022/09/01 06:48:07;;;;;;;3.77;2.63;;;18.70;99.90;;;;;;5048468;28;20757;-45
2022/09/01 06:50:33;;;;;;;4.07;2.10;;;18.80;99.90;;;;;;5049802;28;20459;-45
2022/09/01 06:53:12;;;;;;;2.90;2.33;;;18.90;99.90;;;;;;5046933;28;20439;-44
2022/09/01 06:55:40;;;;;;;5.33;2.60;;;19.00;99.90;;;;;;5059543;28;20431;-43
2022/09/01 06:58:10;;;;;;;4.73;2.23;;;19.00;99.60;;;;;;5062313;28;20431;-43
2022/09/01 07:00:40;;;;;;;3.03;2.33;;;19.00;99.80;;;;;;5047674;28;20428;-47
2022/09/01 07:03:10;;;;;;;4.60;2.20;;;19.00;99.90;;;;;;5052434;28;20458;-43
2022/09/01 07:05:48;;;;;;;3.90;2.53;;;18.90;99.90;;;;;;5052192;28;20520;-45
2022/09/01 07:08:20;;;;;;;4.10;2.87;;;19.10;99.90;;;;;;5051449;28;20446;-44
2022/09/01 07:10:50;;;;;;;3.90;1.97;;;19.10;99.90;;;;;;5051518;28;20459;-45
2022/09/01 07:13:22;;;;;;;4.37;2.33;;;19.10;99.90;;;;;;5051950;28;20439;-45
2022/09/01 07:15:51;;;;;;;3.80;2.50;;;19.00;99.90;;;;;;5055497;28;20415;-45
2022/09/01 07:18:20;;;;;;;3.77;2.80;;;18.90;99.90;;;;;;5071412;28;20554;-42
2022/09/01 07:20:47;;;;;;;3.13;2.33;;;18.80;99.90;;;;;;5067750;28;20518;-45
2022/09/01 07:23:18;;;;;;;2.43;2.23;;;18.80;99.90;;;;;;5051909;28;20463;-49
2022/09/01 07:25:47;;;;;;;3.97;2.43;;;18.80;99.90;;;;;;5051671;28;20774;-42
2022/09/01 07:28:16;;;;;;;5.50;2.30;;;18.80;99.90;;;;;;5051606;28;20432;-47
2022/09/01 07:30:44;;;;;;;4.67;2.67;;;18.90;99.90;;;;;;5057036;28;20854;-43
2022/09/01 07:33:12;;;;;;;2.10;1.90;;;19.10;99.90;;;;;;5071708;28;20941;-44
2022/09/01 07:35:39;;;;;;;3.83;1.93;;;19.20;99.40;;;;;;5066108;28;20953;-44
2022/09/01 07:38:08;;;;;;;4.13;1.80;;;19.30;99.40;;;;;;5050373;28;20920;-44
2022/09/01 07:40:37;;;;;;;4.60;2.23;;;19.30;99.50;;;;;;5072067;28;20560;-46
2022/09/01 07:43:13;;;;;;;3.70;1.90;;;19.40;99.20;;;;;;5071297;28;20420;-43
2022/09/01 07:45:45;;;;;;;3.30;1.83;;;19.40;99.20;;;;;;5064404;28;20420;-46
2022/09/01 07:48:11;;;;;;;2.10;1.77;;;19.50;99.30;;;;;;5048890;28;20424;-44
2022/09/01 07:50:46;;;;;;;2.63;1.90;;;19.50;99.50;;;;;;5050331;28;20513;-47
2022/09/01 07:53:14;;;;;;;3.07;2.10;;;19.50;99.20;;;;;;5050120;28;20438;-47
2022/09/01 07:55:43;;;;;;;2.93;1.90;;;19.50;99.70;;;;;;5051132;28;20570;-44
2022/09/01 07:58:08;;;;;;;6.33;2.17;;;19.60;99.60;;;;;;5049565;28;20450;-42
2022/09/01 08:00:35;;;;;;;2.33;1.73;;;19.60;99.60;;;;;;5051433;28;20420;-47
2022/09/01 08:03:01;;;;;;;2.30;1.70;;;19.60;98.90;;;;;;5050713;28;20200;-45
2022/09/01 08:05:27;;;;;;;5.30;1.87;;;19.70;98.70;;;;;;5051099;28;20827;-45
2022/09/01 08:07:53;;;;;;;4.10;1.60;;;19.70;99.00;;;;;;5050452;28;20217;-43
2022/09/01 08:10:19;;;;;;;5.93;1.80;;;19.70;98.80;;;;;;5051092;28;21037;-48
2022/09/01 08:12:45;;;;;;;4.03;1.90;;;19.70;99.00;;;;;;5050309;28;20200;-45
2022/09/01 08:15:11;;;;;;;2.77;1.60;;;19.80;98.60;;;;;;5050989;28;20273;-45
2022/09/01 08:17:37;;;;;;;2.47;1.80;;;19.80;98.50;;;;;;5049817;28;20182;-48
2022/09/01 08:20:07;;;;;;;3.40;1.50;;;19.80;98.60;;;;;;5060317;28;20431;-49
2022/09/01 08:22:34;;;;;;;3.50;1.97;;;19.80;98.60;;;;;;5051576;28;20428;-42
2022/09/01 08:25:00;;;;;;;5.43;1.80;;;19.90;98.10;;;;;;5049522;28;20947;-46
2022/09/01 08:27:25;;;;;;;1.90;1.47;;;20.00;98.20;;;;;;5048757;28;20471;-45
2022/09/01 08:29:51;;;;;;;2.60;1.87;;;20.00;98.00;;;;;;5050417;28;20955;-48
2022/09/01 08:32:17;;;;;;;2.00;1.70;;;20.00;97.90;;;;;;5050181;28;20185;-44
2022/09/01 08:34:43;;;;;;;4.30;1.73;;;20.00;97.90;;;;;;5050555;28;20200;-47
2022/09/01 08:37:08;;;;;;;2.30;1.70;;;20.10;97.80;;;;;;5049937;28;20186;-48
2022/09/01 08:39:34;;;;;;;4.40;2.10;;;20.20;97.40;;;;;;5050419;28;20192;-48
2022/09/01 08:42:36;;;;;;;2.70;1.80;;;20.20;96.70;;;;;;5050358;28;20189;-45
2022/09/01 08:45:32;;;;;;;2.27;1.37;;;20.30;97.30;;;;;;5050384;28;20200;-47
2022/09/01 08:48:08;;;;;;;1.40;1.30;;;20.30;97.30;;;;;;5049901;28;20428;-45
2022/09/01 08:50:36;;;;;;;6.13;1.50;;;20.40;96.80;;;;;;5050058;28;20455;-45
2022/09/01 08:53:21;;;;;;;1.60;1.50;;;20.50;96.90;;;;;;5049834;28;20416;-46
2022/09/01 08:55:53;;;;;;;1.80;1.40;;;20.50;96.00;;;;;;5049512;28;20423;-46
2022/09/01 08:58:19;;;;;;;1.60;1.50;;;20.60;96.00;;;;;;5049774;28;20420;-45
2022/09/01 09:00:53;;;;;;;4.63;1.60;;;20.60;95.90;;;;;;5050023;28;20787;-43
2022/09/01 09:03:21;;;;;;;2.90;1.70;;;20.70;95.90;;;;;;5049922;28;20236;-44
2022/09/01 09:06:06;;;;;;;2.10;1.33;;;20.80;95.20;;;;;;5049999;28;20556;-42
2022/09/01 09:08:58;;;;;;;1.50;1.30;;;20.80;95.80;;;;;;5049513;28;20424;-45
2022/09/01 09:11:57;;;;;;;2.67;1.23;;;20.90;96.30;;;;;;5049824;28;20459;-43
2022/09/01 09:14:57;;;;;;;2.23;1.23;;;21.00;95.10;;;;;;5050274;28;20450;-44
2022/09/01 09:17:30;;;;;;;2.10;1.70;;;21.10;95.20;;;;;;5049371;28;20416;-47
2022/09/01 09:19:56;;;;;;;1.20;1.10;;;21.20;94.60;;;;;;5041432;28;20431;-45
2022/09/01 09:22:22;;;;;;;2.70;1.70;;;21.20;94.00;;;;;;5052172;28;20428;-48
2022/09/01 09:24:54;;;;;;;3.00;1.73;;;21.30;95.10;;;;;;5048953;28;20243;-45
2022/09/01 09:27:36;;;;;;;1.63;1.40;;;21.40;95.20;;;;;;5048811;28;20272;-47
2022/09/01 09:30:11;;;;;;;2.20;1.47;;;21.50;94.80;;;;;;5049461;28;20464;-45
2022/09/01 09:32:45;;;;;;;3.33;1.60;;;21.60;94.70;;;;;;5049223;28;20918;-43
2022/09/01 09:35:37;;;;;;;1.67;1.57;;;21.70;94.80;;;;;;5049490;28;20450;-46
2022/09/01 09:38:17;;;;;;;3.17;1.60;;;21.90;95.10;;;;;;5049066;28;20810;-48
2022/09/01 09:40:58;;;;;;;5.87;1.60;;;22.00;93.40;;;;;;5049203;28;20493;-48
2022/09/01 09:43:26;;;;;;;3.60;1.70;;;22.20;94.10;;;;;;5049204;28;20930;-44
2022/09/01 09:46:23;;;;;;;1.73;1.40;;;22.20;93.10;;;;;;5049465;28;20427;-47
2022/09/01 09:49:19;;;;;;;1.63;1.53;;;22.40;93.10;;;;;;5048779;28;20834;-47
2022/09/01 09:51:48;;;;;;;3.00;1.40;;;22.50;92.20;;;;;;5049102;28;20884;-49
2022/09/01 09:54:24;;;;;;;2.93;1.47;;;22.60;91.70;;;;;;5049313;28;20424;-47
2022/09/01 09:57:12;;;;;;;2.90;1.80;;;22.70;92.10;;;;;;5047305;28;20459;-48
2022/09/01 09:59:40;;;;;;;7.63;1.50;;;22.70;92.70;;;;;;5047331;28;20518;-48
2022/09/01 10:02:24;;;;;;;5.40;1.63;;;22.80;92.40;;;;;;5049032;28;20824;-44
2022/09/01 10:04:50;;;;;;;1.70;1.40;;;23.00;92.30;;;;;;5048965;28;20432;-45
2022/09/01 10:07:36;;;;;;;7.13;2.03;;;23.10;91.20;;;;;;5048080;28;20441;-46
2022/09/01 10:10:23;;;;;;;1.83;1.33;;;23.20;91.20;;;;;;5048557;28;20488;-49
2022/09/01 10:12:51;;;;;;;1.60;1.50;;;23.20;91.40;;;;;;5048755;28;20431;-46
2022/09/01 10:15:21;;;;;;;4.80;1.50;;;23.30;92.20;;;;;;5048775;28;20997;-47
2022/09/01 10:17:50;;;;;;;4.50;1.93;;;23.40;92.00;;;;;;5047974;28;20792;-44
2022/09/01 10:20:25;;;;;;;3.07;1.60;;;23.50;91.10;;;;;;5061272;28;20427;-45
2022/09/01 10:22:52;;;;;;;3.80;1.60;;;23.60;90.20;;;;;;5036201;28;20963;-48
2022/09/01 10:25:28;;;;;;;1.60;1.50;;;23.60;91.60;;;;;;5048806;28;20431;-49
2022/09/01 10:28:05;;;;;;;3.53;1.70;;;23.70;91.10;;;;;;5047601;28;20717;-48
2022/09/01 10:30:31;;;;;;;2.20;2.00;;;23.70;92.70;;;;;;5048401;28;20452;-50
2022/09/01 10:32:59;;;;;;;2.70;1.87;;;23.80;90.60;;;;;;5048033;28;20424;-48
2022/09/01 10:35:30;;;;;;;1.60;1.50;;;23.80;90.50;;;;;;5048563;28;20511;-48
2022/09/01 10:37:59;;;;;;;1.70;1.60;;;23.90;92.00;;;;;;5047583;28;20432;-49
2022/09/01 10:40:27;;;;;;;1.70;1.60;;;24.00;92.40;;;;;;5048332;28;20432;-46
2022/09/01 10:42:56;;;;;;;1.63;1.53;;;24.10;90.60;;;;;;5048544;28;20439;-48
2022/09/01 10:45:32;;;;;;;2.00;1.70;;;24.10;90.00;;;;;;5048481;28;20435;-50
2022/09/01 10:48:20;;;;;;;3.40;1.77;;;24.10;89.30;;;;;;5047369;28;20625;-46
2022/09/01 10:50:47;;;;;;;3.43;1.70;;;24.20;91.50;;;;;;5048219;28;20601;-48
2022/09/01 10:53:32;;;;;;;1.80;1.70;;;24.20;91.30;;;;;;5046767;28;20443;-46
2022/09/01 10:56:13;;;;;;;3.10;1.60;;;24.40;88.40;;;;;;5047813;28;20456;-50
2022/09/01 10:59:07;;;;;;;1.60;1.50;;;24.40;88.60;;;;;;5047570;28;20810;-49
2022/09/01 11:01:44;;;;;;;2.47;1.70;;;24.30;90.30;;;;;;5048172;28;20426;-50
2022/09/01 11:04:15;;;;;;;1.93;1.40;;;24.40;87.20;;;;;;5048270;28;20932;-46
2022/09/01 11:06:41;;;;;;;3.40;1.73;;;24.20;88.30;;;;;;5047597;28;20440;-46
2022/09/01 11:09:26;;;;;;;7.97;2.10;;;24.30;88.60;;;;;;5048095;28;20518;-46
2022/09/01 11:12:15;;;;;;;2.67;2.20;;;24.30;90.00;;;;;;5048037;28;20228;-49
2022/09/01 11:15:12;;;;;;;2.80;1.73;;;24.30;89.30;;;;;;5055640;28;20519;-49
2022/09/01 11:17:55;;;;;;;2.10;1.60;;;24.40;90.00;;;;;;5045190;28;20427;-47
2022/09/01 11:20:36;;;;;;;2.13;1.93;;;24.50;90.30;;;;;;5060187;28;20934;-46
2022/09/01 11:23:22;;;;;;;2.50;1.93;;;24.50;88.10;;;;;;5048122;28;20830;-48
2022/09/01 11:25:57;;;;;;;3.50;1.63;;;24.60;86.00;;;;;;5047955;28;20424;-48
2022/09/01 11:28:23;;;;;;;4.00;1.70;;;24.60;85.00;;;;;;5040670;28;20460;-49
2022/09/01 11:30:54;;;;;;;3.70;1.97;;;24.70;84.00;;;;;;5047460;28;20963;-47
2022/09/01 11:33:41;;;;;;;2.53;1.90;;;24.70;85.00;;;;;;5047599;28;20197;-44
2022/09/01 11:36:18;;;;;;;3.10;1.93;;;24.70;85.40;;;;;;5042902;28;20424;-45
2022/09/01 11:39:01;;;;;;;2.30;1.70;;;24.80;87.00;;;;;;5048569;28;20424;-46
2022/09/01 11:41:31;;;;;;;2.47;1.97;;;24.80;87.50;;;;;;5047988;28;20515;-47
2022/09/01 11:43:59;;;;;;;3.67;1.90;;;24.80;85.10;;;;;;5048898;28;20975;-44
2022/09/01 11:46:35;;;;;;;2.27;1.63;;;24.80;86.70;;;;;;5048891;28;20443;-46
2022/09/01 11:49:32;;;;;;;3.53;1.63;;;24.90;87.60;;;;;;5052922;28;20424;-49
2022/09/01 11:52:00;;;;;;;2.40;1.83;;;25.00;87.30;;;;;;5054181;28;20438;-48
2022/09/01 11:54:37;;;;;;;3.23;2.00;;;25.20;84.40;;;;;;5051432;28;20430;-46
2022/09/01 11:57:22;;;;;;;2.30;1.80;;;25.30;80.60;;;;;;5051174;28;20469;-50
2022/09/01 11:59:48;;;;;;;2.20;2.00;;;25.20;85.40;;;;;;5052690;28;20432;-44
2022/09/01 12:02:32;;;;;;;1.90;1.57;;;25.20;85.00;;;;;;5052448;28;20416;-49
2022/09/01 12:05:00;;;;;;;2.20;1.73;;;25.30;83.60;;;;;;5052664;28;20416;-46
2022/09/01 12:07:45;;;;;;;2.00;1.80;;;25.20;85.20;;;;;;5050509;28;20822;-48
2022/09/01 12:10:34;;;;;;;2.10;1.97;;;25.30;80.40;;;;;;5052601;28;20486;-46
2022/09/01 12:13:06;;;;;;;1.93;1.83;;;25.30;80.20;;;;;;5052334;28;20416;-49
2022/09/01 12:15:35;;;;;;;2.37;1.80;;;25.30;80.30;;;;;;5052718;28;20871;-49
2022/09/01 12:18:22;;;;;;;2.70;1.90;;;25.30;83.00;;;;;;5051776;28;20451;-47
2022/09/01 12:20:49;;;;;;;3.23;1.90;;;25.40;80.80;;;;;;5064407;28;20482;-46
2022/09/01 12:23:24;;;;;;;1.57;1.30;;;25.40;79.60;;;;;;5052041;28;20452;-49
2022/09/01 12:25:51;;;;;;;2.53;2.33;;;25.40;80.50;;;;;;5052267;28;20924;-50
2022/09/01 12:28:17;;;;;;;2.97;1.80;;;25.50;81.00;;;;;;5051475;28;20417;-48
2022/09/01 12:30:43;;;;;;;2.33;1.70;;;25.50;81.10;;;;;;5052205;28;20508;-49
2022/09/01 12:33:12;;;;;;;1.93;1.83;;;25.40;81.80;;;;;;5051941;28;20251;-46
2022/09/01 12:35:37;;;;;;;2.00;1.80;;;25.50;84.20;;;;;;5052100;28;20428;-50
2022/09/01 12:38:18;;;;;;;2.00;1.67;;;25.50;79.30;;;;;;5050978;28;20424;-44
2022/09/01 12:40:48;;;;;;;2.20;1.77;;;25.60;81.20;;;;;;5052143;28;20722;-48
2022/09/01 12:43:33;;;;;;;1.60;1.50;;;25.60;79.90;;;;;;5051722;28;20478;-49
2022/09/01 12:46:00;;;;;;;3.07;2.00;;;25.50;77.90;;;;;;5051990;28;20930;-46
2022/09/01 12:48:35;;;;;;;4.63;2.07;;;25.40;79.20;;;;;;5050768;28;20428;-47
2022/09/01 12:51:24;;;;;;;2.00;1.70;;;25.50;78.40;;;;;;5051724;28;20464;-46
2022/09/01 12:53:57;;;;;;;1.90;1.70;;;25.50;79.10;;;;;;5051803;28;20444;-45
2022/09/01 12:56:30;;;;;;;3.13;1.90;;;25.60;77.80;;;;;;5050750;28;20494;-48
2022/09/01 12:59:11;;;;;;;1.60;1.50;;;25.60;75.40;;;;;;5048322;28;20421;-49
2022/09/01 13:01:38;;;;;;;3.47;2.30;;;25.60;75.70;;;;;;5051736;28;20473;-47
2022/09/01 13:04:21;;;;;;;2.33;1.87;;;25.60;78.40;;;;;;5051588;28;20889;-46
2022/09/01 13:06:48;;;;;;;2.73;1.90;;;25.70;79.30;;;;;;5050765;28;20464;-48
2022/09/01 13:09:15;;;;;;;1.73;1.63;;;25.60;78.40;;;;;;5049826;28;20426;-51
2022/09/01 13:11:41;;;;;;;2.10;1.80;;;25.60;78.00;;;;;;5051637;28;20837;-49
2022/09/01 13:14:10;;;;;;;5.53;2.17;;;25.50;75.70;;;;;;5051372;28;20485;-49